Time;durP1;ratioP1;P1;durP2;ratioP2;P2;SDS_P1;SDS_P2;PMS_P1;PMS_P2;Temp;Humidity;BMP_temperature;BMP_pressure;BME280_temperature;BME280_humidity;BME280_pressure;Samples;Min_cycle;Max_cycle;Signal;HPM_P1;HPM_P2
2023/08/16 00:02:29;;;;;;;2.63;1.88;;;;;;;22.40;55.99;97937.22;10372816;28;20133;-70
2023/08/16 00:07:49;;;;;;;5.28;1.88;;;;;;;22.36;56.44;97942.81;10359370;28;20473;-70
2023/08/16 00:13:10;;;;;;;4.20;2.20;;;;;;;22.34;56.31;97939.91;10373982;28;20172;-70
2023/08/16 00:18:31;;;;;;;4.10;2.03;;;;;;;22.32;57.32;97936.31;10372612;28;20073;-69
2023/08/16 00:23:52;;;;;;;4.85;2.42;;;;;;;22.32;57.51;97931.34;10359059;28;20121;-70
2023/08/16 00:29:13;;;;;;;4.30;2.10;;;;;;;22.29;58.29;97932.69;10373303;28;20135;-70
2023/08/16 00:34:34;;;;;;;5.20;1.90;;;;;;;22.27;58.57;97924.81;10373449;28;20073;-70
2023/08/16 00:39:54;;;;;;;7.10;1.90;;;;;;;22.29;58.64;97915.63;10372410;28;20077;-71
2023/08/16 00:45:15;;;;;;;4.35;2.10;;;;;;;22.27;58.85;97919.13;10358447;28;20121;-70
2023/08/16 00:50:36;;;;;;;3.90;1.90;;;;;;;22.26;58.73;97925.50;10373868;28;20112;-70
2023/08/16 00:55:57;;;;;;;3.10;1.90;;;;;;;22.20;59.22;97923.25;10379232;28;20050;-70
2023/08/16 01:01:17;;;;;;;4.13;1.80;;;;;;;22.13;59.29;97932.28;10365358;28;20117;-70
2023/08/16 01:06:38;;;;;;;3.47;1.80;;;;;;;22.13;59.61;97932.28;10364796;28;20073;-69
2023/08/16 01:12:20;;;;;;;3.47;1.80;;;;;;;22.10;59.70;97934.38;10378582;28;20113;-70
2023/08/16 01:17:42;;;;;;;4.30;2.20;;;;;;;22.05;59.51;97923.53;10378631;28;20066;-70
2023/08/16 01:23:04;;;;;;;3.20;2.00;;;;;;;22.00;59.66;97931.97;10364403;28;20073;-70
2023/08/16 01:28:25;;;;;;;3.58;1.90;;;;;;;21.93;60.17;97930.34;10378265;28;20066;-70
2023/08/16 01:33:47;;;;;;;4.78;1.90;;;;;;;21.90;60.20;97928.84;10364133;28;20122;-70
2023/08/16 01:39:08;;;;;;;6.70;1.90;;;;;;;21.84;60.36;97931.53;10363921;28;20121;-70
2023/08/16 01:44:29;;;;;;;3.42;1.70;;;;;;;21.77;60.49;97935.59;10363853;28;20587;-70
2023/08/16 01:49:49;;;;;;;4.45;1.98;;;;;;;21.72;60.93;97936.91;10363529;28;20076;-70
2023/08/16 01:55:11;;;;;;;4.03;2.10;;;;;;;21.70;60.87;97939.66;10363596;28;20125;-69
2023/08/16 02:00:32;;;;;;;7.20;2.30;;;;;;;21.63;61.12;97946.59;10377618;28;20096;-70
2023/08/16 02:05:52;;;;;;;4.22;2.38;;;;;;;21.56;61.29;97940.03;10375682;28;20080;-70
2023/08/16 02:11:13;;;;;;;4.35;2.08;;;;;;;21.53;61.52;97943.47;10376223;28;20475;-70
2023/08/16 02:16:34;;;;;;;4.40;2.45;;;;;;;21.53;61.75;97938.53;10376189;28;20121;-70
2023/08/16 02:21:55;;;;;;;7.55;2.65;;;;;;;21.55;61.92;97943.53;10362240;28;20126;-70
2023/08/16 02:27:15;;;;;;;6.03;2.60;;;;;;;21.55;62.10;97946.38;10376635;28;20407;-70
2023/08/16 02:32:36;;;;;;;3.88;2.50;;;;;;;21.55;62.21;97952.06;10376741;28;20126;-70
2023/08/16 02:37:57;;;;;;;5.80;2.75;;;;;;;21.51;62.72;97949.81;10375450;28;20112;-70
2023/08/16 02:43:18;;;;;;;5.72;3.03;;;;;;;21.49;62.82;97954.72;10375103;28;20081;-70
2023/08/16 02:48:38;;;;;;;4.25;3.22;;;;;;;21.46;63.11;97950.38;10376052;28;20122;-71
2023/08/16 02:53:59;;;;;;;3.65;2.75;;;;;;;21.43;63.64;97958.13;10374827;28;20121;-70
2023/08/16 02:59:20;;;;;;;4.95;3.10;;;;;;;21.39;63.91;97966.50;10374660;28;20089;-70
2023/08/16 03:04:41;;;;;;;4.55;3.17;;;;;;;21.37;63.77;97966.47;10374480;28;20124;-70
2023/08/16 03:10:02;;;;;;;7.28;3.20;;;;;;;21.37;64.21;97966.47;10374629;28;20050;-69
2023/08/16 03:15:23;;;;;;;5.22;3.30;;;;;;;21.38;64.51;97967.91;10359576;28;20111;-70
2023/08/16 03:20:44;;;;;;;5.78;3.47;;;;;;;21.30;65.02;97956.31;10373862;28;20600;-70
2023/08/16 03:26:05;;;;;;;5.43;4.05;;;;;;;21.25;65.33;97961.13;10346556;28;20168;-70
2023/08/16 03:31:28;;;;;;;10.63;3.97;;;;;;;21.20;65.86;97965.22;10360357;28;20120;-70
2023/08/16 03:36:49;;;;;;;6.38;3.88;;;;;;;21.20;66.31;97964.50;10373791;28;20117;-70
2023/08/16 03:42:11;;;;;;;6.37;4.27;;;;;;;21.18;66.31;97962.34;10346526;28;20066;-69
2023/08/16 03:47:32;;;;;;;6.28;4.03;;;;;;;21.19;66.86;97972.31;10359772;28;20109;-70
2023/08/16 03:52:53;;;;;;;5.93;3.50;;;;;;;21.15;66.67;97972.19;10373263;28;20092;-70
2023/08/16 03:58:14;;;;;;;7.22;3.63;;;;;;;21.13;67.98;97986.31;10359494;28;20465;-70
2023/08/16 04:03:35;;;;;;;6.10;4.00;;;;;;;21.22;68.68;97993.66;10373535;28;20137;-70
2023/08/16 04:08:55;;;;;;;5.88;4.03;;;;;;;21.28;68.60;98001.69;10373077;28;20536;-70
2023/08/16 04:14:17;;;;;;;4.75;3.38;;;;;;;21.41;68.88;97994.97;10370028;28;20126;-70
2023/08/16 04:19:42;;;;;;;7.65;3.65;;;;;;;21.60;68.33;98011.13;10318418;28;20245;-70
2023/08/16 04:25:03;;;;;;;7.18;3.33;;;;;;;21.72;68.81;98005.09;10332229;28;20474;-70
2023/08/16 04:30:24;;;;;;;6.53;3.10;;;;;;;21.86;69.35;98019.66;10320007;28;20471;-70
2023/08/16 04:35:46;;;;;;;8.45;3.20;;;;;;;22.04;68.72;98021.56;10338686;28;20073;-71
2023/08/16 04:41:06;;;;;;;6.95;3.78;;;;;;;22.22;68.34;98022.78;10336684;28;20400;-69
2023/08/16 04:46:28;;;;;;;7.18;3.28;;;;;;;22.45;68.57;98009.84;10334753;28;20043;-70
2023/08/16 04:51:50;;;;;;;4.60;3.05;;;;;;;22.76;68.19;98016.28;10308723;28;20471;-72
2023/08/16 04:57:11;;;;;;;3.83;2.85;;;;;;;23.16;67.56;98010.09;10337449;28;20503;-73
2023/08/16 05:02:32;;;;;;;7.28;2.90;;;;;;;23.61;66.75;98017.50;10338392;28;20134;-72
2023/08/16 05:07:53;;;;;;;3.30;2.58;;;;;;;24.07;65.87;98034.09;10315783;28;20058;-72
2023/08/16 05:13:15;;;;;;;6.28;3.60;;;;;;;24.46;64.62;98024.84;10311282;28;20051;-72
2023/08/16 05:18:35;;;;;;;7.60;3.20;;;;;;;24.90;63.99;98029.09;10297388;28;20115;-72
2023/08/16 05:23:56;;;;;;;8.15;3.13;;;;;;;25.30;62.20;98026.16;10297444;28;20437;-71
2023/08/16 05:29:17;;;;;;;4.68;2.67;;;;;;;25.79;60.39;98027.53;10296809;28;20474;-70
2023/08/16 05:34:38;;;;;;;7.15;2.65;;;;;;;26.32;58.88;98025.22;10310424;28;20461;-70
2023/08/16 05:39:58;;;;;;;4.20;2.15;;;;;;;26.80;56.94;98036.41;10296327;28;20078;-71
2023/08/16 05:45:21;;;;;;;4.32;2.38;;;;;;;28.90;54.02;98050.91;10297381;28;20446;-70
2023/08/16 05:50:42;;;;;;;4.88;2.55;;;;;;;35.28;44.52;98067.25;10309765;28;20085;-70
2023/08/16 05:56:03;;;;;;;9.68;2.60;;;;;;;39.77;36.13;98079.91;10311303;28;20074;-71
2023/08/16 06:01:24;;;;;;;9.68;3.10;;;;;;;43.08;30.31;98084.25;10349580;28;20161;-71
2023/08/16 06:06:44;;;;;;;6.47;2.60;;;;;;;44.92;25.73;98088.28;10336597;28;20046;-73
2023/08/16 06:12:05;;;;;;;20.65;3.58;;;;;;;44.90;23.57;98082.53;10335716;28;20174;-74
2023/08/16 06:17:26;;;;;;;5.57;2.35;;;;;;;46.39;21.12;98090.66;10335580;28;20489;-74
2023/08/16 06:22:47;;;;;;;4.35;2.05;;;;;;;47.06;19.50;98079.81;10334968;28;20145;-74
2023/08/16 06:28:08;;;;;;;4.25;1.90;;;;;;;47.52;18.76;98081.47;10336099;28;20508;-80
2023/08/16 06:33:30;;;;;;;25.48;4.15;;;;;;;48.26;17.45;98082.31;10307577;28;20081;-80
2023/08/16 06:38:51;;;;;;;8.82;2.55;;;;;;;48.61;17.27;98079.50;10307547;28;20062;-80
2023/08/16 06:44:12;;;;;;;9.25;2.72;;;;;;;50.06;15.91;98082.78;10307029;28;20539;-73
2023/08/16 06:49:33;;;;;;;17.63;2.20;;;;;;;51.47;15.70;98079.63;10334904;28;20042;-72
2023/08/16 06:55:00;;;;;;;8.27;1.58;;;;;;;51.47;13.93;98086.25;10333802;28;20049;-73
2023/08/16 07:00:21;;;;;;;30.45;4.93;;;;;;;51.06;14.18;98092.31;10334496;28;20051;-72
2023/08/16 07:05:43;;;;;;;10.40;2.58;;;;;;;51.41;14.03;98095.75;10333627;28;20128;-73
2023/08/16 07:11:04;;;;;;;9.65;2.40;;;;;;;50.54;14.40;98095.53;10333561;28;20057;-74
2023/08/16 07:16:25;;;;;;;37.45;5.57;;;;;;;50.96;13.79;98096.19;10334450;28;20038;-74
2023/08/16 07:21:48;;;;;;;6.28;1.60;;;;;;;52.02;13.10;98104.09;10333035;28;20126;-71
2023/08/16 07:27:09;;;;;;;3.90;1.40;;;;;;;52.13;12.88;98106.84;10332599;28;20046;-72
2023/08/16 07:32:31;;;;;;;3.35;1.35;;;;;;;51.70;12.93;98101.97;10333846;28;20125;-72
2023/08/16 07:37:52;;;;;;;5.18;1.40;;;;;;;54.11;11.65;98109.16;10333631;28;20503;-72
2023/08/16 07:43:14;;;;;;;3.72;1.48;;;;;;;54.91;10.81;98110.31;10333805;28;20057;-72
2023/08/16 07:48:35;;;;;;;10.35;1.58;;;;;;;56.41;10.70;98110.75;10333478;28;20053;-71
2023/08/16 07:53:56;;;;;;;3.97;1.30;;;;;;;56.49;9.28;98109.81;10333787;28;20038;-72
2023/08/16 07:59:17;;;;;;;3.78;1.40;;;;;;;57.39;8.97;98104.56;10333653;28;20070;-72
2023/08/16 08:04:38;;;;;;;4.38;1.20;;;;;;;57.18;9.69;98110.00;10341555;28;20531;-72
2023/08/16 08:09:59;;;;;;;8.48;1.63;;;;;;;56.90;8.64;98114.06;10327003;28;20047;-73
2023/08/16 08:15:20;;;;;;;4.15;1.10;;;;;;;54.92;9.96;98111.72;10353975;28;20488;-73
2023/08/16 08:20:41;;;;;;;5.13;1.23;;;;;;;56.56;9.16;98112.06;10326532;28;20050;-72
2023/08/16 08:26:02;;;;;;;3.70;1.25;;;;;;;57.52;8.88;98107.50;10339480;28;20469;-72
2023/08/16 08:31:23;;;;;;;2.58;1.17;;;;;;;58.23;8.60;98110.84;10340556;28;20055;-71
2023/08/16 08:36:44;;;;;;;2.67;1.10;;;;;;;57.96;8.56;98116.38;10339196;28;20057;-72
2023/08/16 08:42:07;;;;;;;3.70;1.13;;;;;;;56.99;8.59;98120.47;10325541;28;20046;-73
2023/08/16 08:47:29;;;;;;;2.03;1.40;;;;;;;56.59;9.54;98116.94;10338967;28;20050;-73
2023/08/16 08:52:51;;;;;;;5.40;1.48;;;;;;;56.48;9.17;98110.72;10338589;28;20412;-72
2023/08/16 08:58:13;;;;;;;5.05;1.30;;;;;;;57.31;8.62;98106.91;10339578;28;20055;-72
2023/08/16 09:03:34;;;;;;;4.75;1.63;;;;;;;56.85;8.97;98106.44;10338676;28;20058;-73
2023/08/16 09:08:56;;;;;;;3.60;1.33;;;;;;;55.63;9.16;98112.13;10338303;28;20053;-72
2023/08/16 09:14:17;;;;;;;5.10;1.52;;;;;;;55.18;9.74;98113.41;10337814;28;20038;-73
2023/08/16 09:19:45;;;;;;;5.93;1.80;;;;;;;55.41;10.03;98106.38;10338841;28;20481;-73
2023/08/16 09:25:10;;;;;;;7.00;1.25;;;;;;;55.82;9.52;98101.81;10337708;28;20069;-72
2023/08/16 09:30:31;;;;;;;1.92;1.30;;;;;;;57.25;8.43;98101.00;10337374;28;20530;-72
2023/08/16 09:35:52;;;;;;;4.03;1.40;;;;;;;57.22;8.39;98100.53;10323782;28;20034;-73
2023/08/16 09:41:16;;;;;;;4.18;1.30;;;;;;;56.47;8.95;98100.38;10336684;28;20121;-72
2023/08/16 09:46:40;;;;;;;4.10;1.55;;;;;;;57.13;8.54;98096.41;10337877;28;20042;-72
2023/08/16 09:52:08;;;;;;;6.10;1.55;;;;;;;55.92;8.80;98085.69;10336641;28;20093;-72
2023/08/16 09:57:32;;;;;;;2.88;1.30;;;;;;;54.15;9.70;98078.19;10337338;28;20054;-72
2023/08/16 10:02:54;;;;;;;3.97;1.40;;;;;;;54.64;9.54;98072.97;10319574;28;20112;-72
2023/08/16 10:08:15;;;;;;;3.38;1.42;;;;;;;53.98;10.12;98073.94;10335174;28;20046;-73
2023/08/16 10:13:38;;;;;;;4.50;1.60;;;;;;;54.10;9.97;98071.28;10334151;28;20473;-72
2023/08/16 10:19:01;;;;;;;5.47;1.67;;;;;;;55.05;9.19;98075.91;10333180;28;20046;-72
2023/08/16 10:24:22;;;;;;;2.90;1.40;;;;;;;56.75;7.77;98082.03;10331673;28;20054;-71
2023/08/16 10:29:46;;;;;;;3.08;1.40;;;;;;;53.93;9.56;98075.94;10333024;28;20049;-71
2023/08/16 10:35:08;;;;;;;3.38;1.85;;;;;;;54.68;9.37;98063.56;10307153;28;20048;-70
2023/08/16 10:40:29;;;;;;;3.08;2.00;;;;;;;56.11;8.80;98058.03;10335641;28;20114;-73
2023/08/16 10:45:56;;;;;;;4.13;2.45;;;;;;;56.80;7.94;98064.97;10335239;28;20054;-72
2023/08/16 10:51:17;;;;;;;3.97;2.42;;;;;;;54.95;9.11;98062.06;10334277;28;20046;-73
2023/08/16 10:56:44;;;;;;;3.88;3.00;;;;;;;54.51;8.96;98053.38;10335199;28;20050;-72
2023/08/16 11:02:15;;;;;;;5.07;3.30;;;;;;;53.14;9.86;98055.03;10333552;28;20401;-73
2023/08/16 11:07:37;;;;;;;8.60;3.38;;;;;;;51.93;10.42;98050.66;10334802;28;20038;-73
2023/08/16 11:13:00;;;;;;;5.68;3.30;;;;;;;51.43;10.74;98047.97;10319848;28;20455;-73
2023/08/16 11:18:31;;;;;;;4.78;3.30;;;;;;;49.59;11.84;98042.34;10306466;28;20070;-72
2023/08/16 11:23:55;;;;;;;6.13;3.45;;;;;;;48.72;12.85;98041.59;10333389;28;20480;-72
2023/08/16 11:29:18;;;;;;;8.68;3.58;;;;;;;48.69;13.44;98034.44;10346755;28;20054;-72
2023/08/16 11:34:39;;;;;;;8.10;3.70;;;;;;;46.51;15.39;98030.75;10331936;28;20049;-72
2023/08/16 11:40:07;;;;;;;6.05;3.78;;;;;;;43.62;18.05;98029.59;10332616;28;20113;-72
2023/08/16 11:45:28;;;;;;;7.20;3.95;;;;;;;40.67;21.04;98037.72;10333713;28;20053;-72
2023/08/16 11:50:49;;;;;;;4.53;3.42;;;;;;;38.83;23.30;98016.06;10333835;28;20058;-72
2023/08/16 11:56:11;;;;;;;7.32;3.97;;;;;;;38.25;24.07;98014.03;10333522;28;20042;-72
2023/08/16 12:01:33;;;;;;;5.97;3.60;;;;;;;38.27;24.77;98016.84;10333152;28;20085;-72
2023/08/16 12:06:53;;;;;;;7.97;3.78;;;;;;;37.39;25.99;98009.97;10318790;28;20500;-71
2023/08/16 12:12:15;;;;;;;5.75;4.10;;;;;;;36.99;25.99;98012.78;10332408;28;20093;-72
2023/08/16 12:17:36;;;;;;;9.65;3.35;;;;;;;36.82;26.90;98000.25;10318650;28;20046;-71
2023/08/16 12:23:00;;;;;;;8.48;3.97;;;;;;;36.69;26.79;97994.16;10333198;28;20058;-73
2023/08/16 12:28:21;;;;;;;8.90;4.07;;;;;;;36.20;27.53;97997.91;10333061;28;20061;-72
2023/08/16 12:33:43;;;;;;;7.65;3.95;;;;;;;36.01;27.83;97989.75;10332757;28;20508;-71
2023/08/16 12:39:05;;;;;;;6.03;3.60;;;;;;;35.54;28.18;97996.91;10332963;28;20078;-70
2023/08/16 12:44:27;;;;;;;5.60;4.35;;;;;;;35.32;28.94;97985.88;10318187;28;20070;-71
2023/08/16 12:49:48;;;;;;;6.43;4.10;;;;;;;35.74;28.38;97983.28;10338119;28;20038;-71
2023/08/16 12:55:09;;;;;;;8.90;4.18;;;;;;;35.78;28.42;97980.25;10339616;28;20049;-71
2023/08/16 13:00:30;;;;;;;5.05;4.05;;;;;;;35.73;28.48;97984.75;10339596;28;20499;-71
2023/08/16 13:06:06;;;;;;;5.10;4.20;;;;;;;35.65;28.76;97974.09;10326873;28;20129;-71
2023/08/16 13:11:28;;;;;;;3.67;3.33;;;;;;;36.03;29.07;97968.63;10338975;28;20097;-71
2023/08/16 13:16:56;;;;;;;11.52;4.55;;;;;;;35.82;27.73;97959.81;10338896;28;20050;-71
2023/08/16 13:22:26;;;;;;;4.38;3.92;;;;;;;35.41;28.37;97968.97;10338619;28;20054;-71
2023/08/16 13:27:57;;;;;;;5.15;3.97;;;;;;;35.56;28.44;97959.09;10338463;28;20088;-71
2023/08/16 13:33:38;;;;;;;4.47;4.00;;;;;;;35.31;28.46;97955.44;10242867;29;20051;-71
2023/08/16 13:39:02;;;;;;;7.85;3.97;;;;;;;34.71;29.54;97961.38;10253759;29;20150;-72
2023/08/16 13:44:26;;;;;;;5.63;3.97;;;;;;;34.53;30.15;97950.25;10253428;29;20059;-71
2023/08/16 13:49:50;;;;;;;4.55;4.15;;;;;;;34.65;30.63;97947.78;10289973;28;20101;-70
2023/08/16 13:55:13;;;;;;;;;;;;;;;35.01;30.48;97954.09;10337503;28;20049;-70
2023/08/16 14:00:35;;;;;;;6.03;4.15;;;;;;;35.52;30.08;97955.63;10336432;28;20391;-71
2023/08/16 14:05:56;;;;;;;5.78;4.00;;;;;;;35.91;29.29;97942.88;10336624;28;20054;-71
2023/08/16 14:11:17;;;;;;;5.88;4.00;;;;;;;35.56;29.42;97947.50;10322504;28;20046;-71
2023/08/16 14:16:38;;;;;;;7.50;4.28;;;;;;;35.87;29.16;97940.06;10336795;28;20406;-71
2023/08/16 14:21:59;;;;;;;6.68;4.72;;;;;;;35.71;29.52;97944.16;10336262;28;20049;-71
2023/08/16 14:27:20;;;;;;;;;;;;;;;35.34;30.34;97941.63;10336764;28;20050;-71
2023/08/16 14:32:43;;;;;;;8.02;6.47;;;;;;;34.40;32.08;97941.16;10335879;28;19929;-71
2023/08/16 14:38:04;;;;;;;;;;;;;;;33.82;33.89;97933.06;10335383;28;20049;-71
2023/08/16 14:43:25;;;;;;;10.82;7.68;;;;;;;33.82;34.07;97938.84;10320834;28;20330;-71
2023/08/16 14:48:46;;;;;;;7.78;6.95;;;;;;;33.50;34.77;97934.47;10334396;28;20440;-71
2023/08/16 14:54:07;;;;;;;10.38;6.47;;;;;;;33.52;35.25;97928.66;10334240;28;20108;-70
2023/08/16 14:59:28;;;;;;;9.18;7.38;;;;;;;33.41;35.54;97926.72;10335089;28;20046;-70
2023/08/16 15:04:49;;;;;;;8.93;6.97;;;;;;;33.18;35.56;97909.78;10333832;28;20057;-71
2023/08/16 15:10:10;;;;;;;10.32;7.40;;;;;;;33.13;35.38;97914.25;10320108;28;20043;-71
2023/08/16 15:15:31;;;;;;;9.10;7.82;;;;;;;32.65;36.58;97905.00;10334498;28;20054;-70
2023/08/16 15:20:52;;;;;;;9.23;8.30;;;;;;;32.54;36.82;97900.88;10319735;28;20046;-71
2023/08/16 15:26:13;;;;;;;10.13;8.50;;;;;;;32.46;37.41;97906.78;10334350;28;20050;-70
2023/08/16 15:31:37;;;;;;;10.65;9.55;;;;;;;32.23;38.29;97911.47;10334226;28;20407;-70
2023/08/16 15:36:59;;;;;;;11.30;8.70;;;;;;;32.21;39.68;97915.09;10333946;28;20046;-72
2023/08/16 15:42:21;;;;;;;8.32;6.20;;;;;;;31.40;39.21;97908.31;10319531;28;20077;-71
2023/08/16 15:47:42;;;;;;;10.05;5.25;;;;;;;31.11;38.06;97916.59;10333622;28;20073;-71
2023/08/16 15:53:06;;;;;;;11.23;4.67;;;;;;;30.01;38.58;97942.72;10333433;28;20039;-71
2023/08/16 15:58:58;;;;;;;7.30;4.30;;;;;;;28.18;44.72;97969.69;10333349;28;20193;-68
2023/08/16 16:05:07;;;;;;;4.30;3.13;;;;;;;26.56;49.31;97995.41;10332880;28;20073;-70
2023/08/16 16:10:40;;;;;;;4.38;2.80;;;;;;;25.49;50.36;98036.41;10332999;28;20473;-69
2023/08/16 16:22:41;;;;;;;;;;;;;;;21.63;67.74;98156.78;10336232;28;20051;-67
2023/08/16 16:28:32;;;;;;;4.35;3.13;;;;;;;18.67;77.11;98057.66;10340583;28;19921;-67
2023/08/16 16:33:56;;;;;;;8.52;4.82;;;;;;;18.52;83.20;98075.38;10340282;28;20061;-67
2023/08/16 16:39:17;;;;;;;8.30;5.18;;;;;;;19.36;88.61;98082.28;10339872;28;20471;-65
2023/08/16 16:44:38;;;;;;;9.60;5.18;;;;;;;19.79;85.10;98064.09;10338961;28;20537;-67
2023/08/16 16:49:58;;;;;;;9.80;4.95;;;;;;;19.94;85.13;98049.03;10339687;28;20070;-66
2023/08/16 16:55:19;;;;;;;6.63;4.60;;;;;;;20.12;84.60;98021.34;10324894;28;20120;-67
2023/08/16 17:00:40;;;;;;;7.72;4.85;;;;;;;20.34;85.17;98017.81;10338886;28;20077;-67
2023/08/16 17:06:01;;;;;;;9.13;5.18;;;;;;;20.49;87.31;98026.16;10338633;28;20130;-66
2023/08/16 17:11:22;;;;;;;7.45;4.63;;;;;;;20.79;87.28;98020.75;10338751;28;20097;-66
2023/08/16 17:16:45;;;;;;;5.63;4.20;;;;;;;21.02;86.76;98035.63;10351438;28;20129;-67
2023/08/16 17:22:05;;;;;;;5.80;4.85;;;;;;;21.34;87.75;98039.50;10338231;28;20130;-66
2023/08/16 17:27:26;;;;;;;6.78;4.50;;;;;;;21.66;87.84;98027.63;10337143;28;20545;-66
2023/08/16 17:32:47;;;;;;;10.85;4.90;;;;;;;21.93;87.49;98035.50;10337306;28;20604;-67
2023/08/16 17:38:08;;;;;;;6.55;4.75;;;;;;;22.09;86.96;98017.44;10337698;28;20070;-66
2023/08/16 17:43:29;;;;;;;6.10;4.72;;;;;;;22.41;87.23;98001.25;10337557;28;20062;-67
2023/08/16 17:48:49;;;;;;;4.05;3.65;;;;;;;22.57;85.57;98001.63;10337163;28;20237;-67
2023/08/16 17:54:10;;;;;;;4.05;3.63;;;;;;;22.89;84.98;98005.97;10336874;28;20074;-66
2023/08/16 17:59:33;;;;;;;4.82;3.40;;;;;;;23.22;84.10;98021.63;10336795;28;20140;-67
2023/08/16 18:04:53;;;;;;;3.80;3.40;;;;;;;23.39;81.98;98023.44;10336461;28;20062;-66
2023/08/16 18:10:14;;;;;;;5.05;3.00;;;;;;;23.40;80.77;98039.84;10336351;28;20074;-67
2023/08/16 18:15:35;;;;;;;6.95;3.42;;;;;;;23.37;80.47;98051.88;10334946;28;20117;-67
2023/08/16 18:20:55;;;;;;;7.45;3.55;;;;;;;23.31;80.09;98048.91;10336058;28;20046;-66
2023/08/16 18:26:16;;;;;;;5.00;3.17;;;;;;;23.32;79.12;98053.91;10335511;28;20053;-67
2023/08/16 18:31:37;;;;;;;3.95;3.53;;;;;;;23.21;77.88;98069.31;10335461;28;20457;-67
2023/08/16 18:36:58;;;;;;;5.65;4.10;;;;;;;23.02;77.46;98076.72;10335594;28;20533;-66
2023/08/16 18:42:18;;;;;;;7.05;3.63;;;;;;;22.99;77.24;98095.16;10335213;28;20074;-67
2023/08/16 18:47:39;;;;;;;6.38;3.50;;;;;;;22.96;76.08;98090.78;10333742;28;20117;-67
2023/08/16 18:53:00;;;;;;;5.38;3.72;;;;;;;22.91;75.74;98088.53;10333807;28;20122;-67
2023/08/16 18:58:21;;;;;;;6.45;3.42;;;;;;;22.95;74.96;98083.66;10333810;28;20300;-67
2023/08/16 19:03:42;;;;;;;5.32;3.63;;;;;;;22.87;73.88;98085.56;10334473;28;20222;-67
2023/08/16 19:09:03;;;;;;;4.85;3.55;;;;;;;22.90;73.80;98078.56;10332877;28;20042;-67
2023/08/16 19:14:24;;;;;;;5.03;3.33;;;;;;;22.92;73.13;98082.16;10334280;28;20174;-67
2023/08/16 19:19:45;;;;;;;5.38;3.42;;;;;;;22.94;72.34;98082.22;10319523;28;20165;-67
2023/08/16 19:25:07;;;;;;;6.75;3.85;;;;;;;22.96;72.43;98085.09;10332933;28;20133;-67
2023/08/16 19:30:27;;;;;;;8.40;6.15;;;;;;;22.65;74.28;98117.03;10333747;28;20480;-67
2023/08/16 19:35:49;;;;;;;8.27;5.88;;;;;;;21.87;76.76;98097.84;10333599;28;20074;-67
2023/08/16 19:41:09;;;;;;;9.57;5.90;;;;;;;21.87;77.08;98131.94;10318820;28;20057;-67
2023/08/16 19:46:31;;;;;;;8.65;6.03;;;;;;;21.91;77.97;98117.84;10333364;28;20466;-68
2023/08/16 19:51:52;;;;;;;10.50;5.97;;;;;;;22.11;78.90;98111.31;10333193;28;20129;-67
2023/08/16 19:57:12;;;;;;;7.10;5.53;;;;;;;22.28;78.57;98116.03;10336144;28;20540;-67
2023/08/16 20:02:33;;;;;;;6.57;5.55;;;;;;;22.32;78.24;98084.88;10340360;28;20525;-68
2023/08/16 20:07:54;;;;;;;8.65;5.40;;;;;;;22.32;78.41;98053.63;10341283;28;20459;-67
2023/08/16 20:13:15;;;;;;;8.38;5.70;;;;;;;22.30;78.39;98042.19;10340254;28;20081;-67
2023/08/16 20:18:36;;;;;;;5.47;4.60;;;;;;;22.32;79.01;98030.16;10326391;28;20154;-68
2023/08/16 20:23:57;;;;;;;7.15;5.55;;;;;;;22.27;78.57;98037.81;10339863;28;20117;-67
2023/08/16 20:29:18;;;;;;;6.20;4.85;;;;;;;22.16;78.91;98022.63;10339517;28;20125;-67
2023/08/16 20:34:52;;;;;;;4.82;4.32;;;;;;;22.19;79.44;98029.09;10339324;28;20130;-67
2023/08/16 20:40:12;;;;;;;8.57;5.05;;;;;;;22.17;78.42;98029.03;10340033;28;20042;-67
2023/08/16 20:45:33;;;;;;;6.22;5.10;;;;;;;22.04;78.80;98018.72;10339811;28;20457;-66
2023/08/16 20:50:54;;;;;;;9.38;5.95;;;;;;;22.11;79.33;98018.25;10338808;28;20129;-67
2023/08/16 20:56:15;;;;;;;5.22;4.72;;;;;;;22.06;78.86;98010.25;10339539;28;20100;-67
2023/08/16 21:01:36;;;;;;;7.38;4.47;;;;;;;22.00;79.28;98002.25;10339177;28;20137;-67
2023/08/16 21:07:03;;;;;;;5.82;3.88;;;;;;;22.03;79.18;98003.06;10337952;28;20122;-67
2023/08/16 21:12:23;;;;;;;5.68;4.68;;;;;;;21.91;78.54;98004.19;10338966;28;20050;-67
2023/08/16 21:17:44;;;;;;;7.45;4.55;;;;;;;21.85;79.87;98017.50;10338885;28;20070;-67
2023/08/16 21:23:06;;;;;;;7.93;6.05;;;;;;;21.61;80.26;98011.84;10338484;28;20046;-67
2023/08/16 21:28:27;;;;;;;8.05;6.05;;;;;;;21.41;80.37;98012.72;10338467;28;20117;-67
2023/08/16 21:33:47;;;;;;;8.95;6.85;;;;;;;21.29;81.60;98008.81;10337174;28;20074;-66
2023/08/16 21:39:09;;;;;;;7.75;6.95;;;;;;;21.22;81.75;98013.53;10338080;28;20066;-68
2023/08/16 21:44:30;;;;;;;12.07;6.38;;;;;;;21.24;82.64;98004.38;10336951;28;20133;-67
2023/08/16 21:49:50;;;;;;;7.78;5.35;;;;;;;21.28;82.59;98010.91;10337484;28;20113;-67
2023/08/16 21:55:11;;;;;;;9.43;5.53;;;;;;;21.31;83.03;98020.22;10337350;28;20050;-67
2023/08/16 22:00:34;;;;;;;7.10;6.22;;;;;;;21.33;83.02;98021.03;10336149;28;20526;-67
2023/08/16 22:05:56;;;;;;;7.50;5.55;;;;;;;21.32;82.95;98027.34;10336694;28;20137;-66
2023/08/16 22:11:16;;;;;;;7.45;5.68;;;;;;;21.38;82.72;98033.94;10336720;28;20043;-68
2023/08/16 22:16:37;;;;;;;7.45;6.28;;;;;;;21.27;82.56;98049.22;10336688;28;20074;-67
2023/08/16 22:21:58;;;;;;;8.82;5.25;;;;;;;21.31;83.54;98040.09;10335900;28;20117;-67
2023/08/16 22:27:18;;;;;;;8.48;5.65;;;;;;;21.32;83.55;98016.72;10336031;28;20138;-67
2023/08/16 22:32:39;;;;;;;8.07;5.95;;;;;;;21.32;83.08;98056.44;10335082;28;20136;-67
2023/08/16 22:38:00;;;;;;;8.48;5.40;;;;;;;21.11;82.45;98057.94;10334762;28;20124;-67
2023/08/16 22:43:21;;;;;;;6.88;5.43;;;;;;;20.88;82.81;98063.56;10335571;28;20073;-67
2023/08/16 22:48:42;;;;;;;8.57;5.68;;;;;;;20.73;83.38;98051.75;10348148;28;20118;-67
2023/08/16 22:54:03;;;;;;;7.90;5.38;;;;;;;20.73;83.89;98060.25;10335175;28;20129;-67
2023/08/16 22:59:23;;;;;;;6.93;5.50;;;;;;;20.78;84.23;98046.94;10335124;28;20118;-67
2023/08/16 23:04:45;;;;;;;8.68;5.57;;;;;;;20.86;84.30;98044.38;10332285;28;20133;-67
2023/08/16 23:10:06;;;;;;;9.10;5.72;;;;;;;20.83;83.81;98032.22;10333144;28;20117;-67
2023/08/16 23:15:26;;;;;;;6.88;4.82;;;;;;;20.94;83.81;98032.53;10332890;28;20053;-67
2023/08/16 23:20:47;;;;;;;6.53;5.35;;;;;;;20.96;83.48;98021.28;10332694;28;20137;-66
2023/08/16 23:26:08;;;;;;;7.00;4.82;;;;;;;20.92;83.89;98021.84;10345180;28;20122;-66
2023/08/16 23:31:29;;;;;;;8.10;5.03;;;;;;;20.90;83.81;98027.47;10345494;28;20162;-67
2023/08/16 23:36:49;;;;;;;5.43;4.43;;;;;;;20.86;84.31;98027.34;10332127;28;20050;-67
2023/08/16 23:42:10;;;;;;;6.78;4.60;;;;;;;20.88;84.09;98035.94;10331133;28;20121;-66
2023/08/16 23:47:31;;;;;;;9.70;4.63;;;;;;;20.84;83.06;98030.09;10332001;28;20141;-67
2023/08/16 23:52:52;;;;;;;6.55;4.18;;;;;;;20.84;83.29;98032.94;10331409;28;20097;-67
2023/08/16 23:58:13;;;;;;;5.70;4.50;;;;;;;20.86;83.43;98019.56;10330692;28;20154;-67
